createdAt,value
2022-11-06T00:00:46.848Z,51.40
2022-11-06T00:03:14.966Z,53.90
2022-11-06T00:06:01.333Z,54.20
2022-11-06T00:08:36.147Z,50.23
2022-11-06T00:11:10.905Z,48.80
2022-11-06T00:13:39.073Z,49.70
2022-11-06T00:16:09.461Z,47.77
2022-11-06T00:18:38.727Z,47.30
2022-11-06T00:21:10.293Z,49.63
2022-11-06T00:23:39.732Z,46.97
2022-11-06T00:26:09.347Z,46.17
2022-11-06T00:28:38.028Z,47.27
2022-11-06T00:31:07.405Z,41.20
2022-11-06T00:33:35.918Z,39.63
2022-11-06T00:36:05.217Z,40.20
2022-11-06T00:38:33.469Z,38.23
2022-11-06T00:41:06.261Z,36.17
2022-11-06T00:43:35.952Z,37.60
2022-11-06T00:46:04.191Z,36.77
2022-11-06T00:48:32.473Z,36.97
2022-11-06T00:51:03.729Z,33.40
2022-11-06T00:53:31.948Z,35.27
2022-11-06T00:56:07.478Z,35.57
2022-11-06T00:58:36.214Z,35.63
2022-11-06T01:01:08.850Z,35.70
2022-11-06T01:03:37.208Z,33.03
2022-11-06T01:06:07.313Z,35.30
2022-11-06T01:08:35.429Z,34.10
2022-11-06T01:11:10.384Z,33.17
2022-11-06T01:13:38.982Z,30.37
2022-11-06T01:16:08.930Z,30.37
2022-11-06T01:18:38.402Z,30.80
2022-11-06T01:21:07.882Z,29.37
2022-11-06T01:23:36.385Z,29.00
2022-11-06T01:26:06.502Z,28.50
2022-11-06T01:28:36.442Z,26.67
2022-11-06T01:31:06.546Z,27.80
2022-11-06T01:33:34.688Z,24.13
2022-11-06T01:36:02.785Z,24.60
2022-11-06T01:38:30.981Z,21.70
2022-11-06T01:40:59.124Z,20.83
2022-11-06T01:43:48.966Z,24.93
2022-11-06T01:46:17.575Z,23.73
2022-11-06T01:48:50.022Z,21.90
2022-11-06T01:51:19.197Z,19.33
2022-11-06T01:53:47.668Z,19.47
2022-11-06T01:56:16.570Z,20.07
2022-11-06T01:58:47.894Z,16.70
2022-11-06T02:01:17.268Z,16.80
2022-11-06T02:03:54.366Z,14.80
2022-11-06T02:06:23.581Z,15.10
2022-11-06T02:08:51.770Z,14.03
2022-11-06T02:11:19.999Z,14.43
2022-11-06T02:14:02.599Z,14.00
2022-11-06T02:16:40.036Z,15.17
2022-11-06T02:19:31.678Z,13.53
2022-11-06T02:22:26.428Z,13.10
2022-11-06T02:25:17.968Z,14.67
2022-11-06T02:27:51.530Z,16.67
2022-11-06T02:30:20.078Z,17.17
2022-11-06T02:32:54.907Z,18.37
2022-11-06T02:35:28.100Z,22.47
2022-11-06T02:38:01.118Z,24.80
2022-11-06T02:40:34.799Z,23.00
2022-11-06T02:43:08.272Z,23.17
2022-11-06T02:45:43.328Z,23.80
2022-11-06T02:48:13.917Z,24.27
2022-11-06T02:50:46.057Z,26.30
2022-11-06T02:53:16.587Z,27.03
2022-11-06T02:55:48.936Z,29.63
2022-11-06T02:58:21.779Z,30.17
2022-11-06T03:00:55.926Z,31.50
2022-11-06T03:03:27.756Z,32.13
2022-11-06T03:06:02.341Z,32.73
2022-11-06T03:08:37.317Z,34.37
2022-11-06T03:11:13.552Z,34.03
2022-11-06T03:13:52.381Z,32.70
2022-11-06T03:16:30.162Z,34.53
2022-11-06T03:19:05.079Z,30.77
2022-11-06T03:21:40.021Z,30.13
2022-11-06T03:24:15.737Z,28.33
2022-11-06T03:26:48.622Z,29.27
2022-11-06T03:29:22.604Z,29.30
2022-11-06T03:31:55.385Z,26.63
2022-11-06T03:34:31.281Z,27.60
2022-11-06T03:37:05.044Z,27.43
2022-11-06T03:39:38.929Z,26.23
2022-11-06T03:42:10.921Z,28.20
2022-11-06T03:44:43.625Z,26.63
2022-11-06T03:47:16.462Z,26.93
2022-11-06T03:49:50.852Z,28.17
2022-11-06T03:52:26.489Z,30.87
2022-11-06T03:55:00.934Z,28.17
2022-11-06T03:57:36.345Z,30.60
2022-11-06T04:00:08.046Z,31.90
2022-11-06T04:02:39.944Z,31.80
2022-11-06T04:05:12.502Z,33.17
2022-11-06T04:08:06.703Z,31.10
2022-11-06T04:10:54.003Z,31.40
2022-11-06T04:13:42.351Z,30.70
2022-11-06T04:16:13.458Z,31.77
2022-11-06T04:18:41.578Z,31.60
2022-11-06T04:21:26.048Z,30.90
2022-11-06T04:24:35.047Z,28.07
2022-11-06T04:27:24.842Z,27.30
2022-11-06T04:30:06.633Z,26.03
2022-11-06T04:32:48.904Z,23.73
2022-11-06T04:35:25.284Z,23.80
2022-11-06T04:38:02.924Z,21.07
2022-11-06T04:40:40.454Z,22.13
2022-11-06T04:43:16.041Z,20.43
2022-11-06T04:45:48.831Z,23.13
2022-11-06T04:48:19.679Z,23.40
2022-11-06T04:50:52.509Z,25.70
2022-11-06T04:53:23.490Z,22.20
2022-11-06T04:55:54.235Z,24.53
2022-11-06T04:58:22.276Z,24.50
2022-11-06T05:00:51.963Z,25.37
2022-11-06T05:03:21.530Z,27.37
2022-11-06T05:05:49.714Z,29.33
2022-11-06T05:08:19.833Z,28.80
2022-11-06T05:10:48.683Z,28.97
2022-11-06T05:13:17.369Z,28.90
2022-11-06T05:15:45.723Z,27.00
2022-11-06T05:18:13.914Z,27.30
2022-11-06T05:20:43.578Z,27.50
2022-11-06T05:23:10.798Z,26.60
2022-11-06T05:25:40.623Z,27.63
2022-11-06T05:31:49.311Z,29.23
2022-11-06T05:34:17.439Z,27.60
2022-11-06T05:36:47.214Z,26.57
2022-11-06T05:39:15.345Z,27.37
2022-11-06T05:41:43.924Z,27.50
2022-11-06T05:44:12.283Z,22.80
2022-11-06T05:46:48.619Z,21.43
2022-11-06T05:49:17.180Z,22.70
2022-11-06T05:51:46.645Z,24.00
2022-11-06T05:54:15.381Z,20.30
2022-11-06T05:56:43.541Z,22.00
2022-11-06T05:59:11.751Z,21.77
2022-11-06T06:01:39.996Z,22.40
2022-11-06T06:04:08.117Z,21.20
2022-11-06T06:06:37.115Z,20.77
2022-11-06T06:09:06.615Z,20.80
2022-11-06T06:11:35.103Z,20.23
2022-11-06T06:14:03.318Z,20.43
2022-11-06T06:16:31.403Z,19.73
2022-11-06T06:18:59.597Z,18.63
2022-11-06T06:21:27.638Z,19.83
2022-11-06T06:23:55.715Z,20.27
2022-11-06T06:26:25.368Z,19.83
2022-11-06T06:28:53.441Z,17.80
2022-11-06T06:31:21.650Z,19.07
2022-11-06T06:33:49.802Z,19.63
2022-11-06T06:36:18.290Z,19.43
2022-11-06T06:38:46.434Z,18.83
2022-11-06T06:41:14.495Z,17.20
2022-11-06T06:43:44.040Z,18.57
2022-11-06T06:46:12.104Z,17.73
2022-11-06T06:48:40.326Z,18.47
2022-11-06T06:51:09.002Z,17.03
2022-11-06T06:53:37.914Z,19.10
2022-11-06T06:56:06.489Z,17.70
2022-11-06T06:58:34.873Z,17.80
2022-11-06T07:01:06.848Z,18.80
2022-11-06T07:03:35.004Z,17.90
2022-11-06T07:06:03.355Z,16.20
2022-11-06T07:08:31.759Z,15.30
2022-11-06T07:11:01.393Z,17.70
2022-11-06T07:13:35.546Z,15.77
2022-11-06T07:16:07.076Z,15.57
2022-11-06T07:18:35.521Z,15.40
2022-11-06T07:21:06.254Z,14.90
2022-11-06T07:23:35.610Z,14.70
2022-11-06T07:26:04.258Z,15.93
2022-11-06T07:28:32.523Z,14.00
2022-11-06T07:31:01.391Z,15.00
2022-11-06T07:33:31.165Z,14.63
2022-11-06T07:36:04.134Z,13.90
2022-11-06T07:38:33.869Z,14.73
2022-11-06T07:41:04.400Z,14.90
2022-11-06T07:43:32.780Z,15.07
2022-11-06T07:46:01.906Z,14.10
2022-11-06T07:48:32.181Z,14.00
2022-11-06T07:51:03.284Z,13.50
2022-11-06T07:53:31.383Z,13.90
2022-11-06T07:55:59.801Z,12.97
2022-11-06T07:58:28.578Z,14.00
2022-11-06T08:00:59.666Z,14.03
2022-11-06T08:03:30.483Z,14.23
2022-11-06T08:06:00.448Z,15.37
2022-11-06T08:08:29.565Z,14.57
2022-11-06T08:10:57.694Z,13.73
2022-11-06T08:13:26.587Z,13.13
2022-11-06T08:15:54.647Z,13.50
2022-11-06T08:18:22.726Z,13.63
2022-11-06T08:20:54.235Z,13.37
2022-11-06T08:23:23.684Z,12.67
2022-11-06T08:25:55.211Z,13.40
2022-11-06T08:28:23.326Z,11.93
2022-11-06T08:30:51.772Z,12.40
2022-11-06T08:33:20.615Z,12.30
2022-11-06T08:35:49.030Z,15.30
2022-11-06T08:38:17.553Z,14.27
2022-11-06T08:40:52.277Z,13.33
2022-11-06T08:43:23.549Z,13.27
2022-11-06T08:45:51.686Z,13.50
2022-11-06T08:48:19.855Z,13.67
2022-11-06T08:50:48.047Z,13.83
2022-11-06T08:53:16.629Z,13.87
2022-11-06T08:55:46.385Z,13.40
2022-11-06T08:58:14.760Z,13.70
2022-11-06T09:00:43.107Z,13.87
2022-11-06T09:03:14.154Z,14.50
2022-11-06T09:05:43.226Z,14.33
2022-11-06T09:08:11.552Z,13.70
2022-11-06T09:10:40.851Z,13.40
2022-11-06T09:13:11.129Z,12.37
2022-11-06T09:15:40.228Z,14.00
2022-11-06T09:18:08.552Z,13.60
2022-11-06T09:20:37.009Z,12.77
2022-11-06T09:23:07.519Z,12.40
2022-11-06T09:25:35.654Z,12.13
2022-11-06T09:28:03.755Z,12.77
2022-11-06T09:30:33.855Z,13.60
2022-11-06T09:33:04.718Z,12.70
2022-11-06T09:35:36.159Z,13.07
2022-11-06T09:38:05.338Z,12.30
2022-11-06T09:40:37.007Z,13.63
2022-11-06T09:43:50.037Z,12.50
2022-11-06T09:46:23.697Z,12.07
2022-11-06T09:48:58.299Z,12.60
2022-11-06T09:51:35.194Z,12.70
2022-11-06T09:54:12.072Z,13.03
2022-11-06T09:56:42.530Z,13.90
2022-11-06T09:59:15.117Z,13.43
2022-11-06T10:01:48.890Z,13.17
2022-11-06T10:04:37.655Z,11.60
2022-11-06T10:07:05.897Z,13.00
2022-11-06T10:09:34.012Z,14.23
2022-11-06T10:12:14.815Z,13.20
2022-11-06T10:14:54.474Z,12.87
2022-11-06T10:17:39.632Z,13.67
2022-11-06T10:20:23.673Z,12.87
2022-11-06T10:23:04.735Z,12.87
2022-11-06T10:25:51.589Z,12.33
2022-11-06T10:29:07.301Z,12.67
2022-11-06T10:31:44.900Z,11.90
2022-11-06T10:34:19.335Z,13.17
2022-11-06T10:36:52.086Z,12.33
2022-11-06T10:39:23.677Z,13.50
2022-11-06T10:41:57.236Z,12.87
2022-11-06T10:44:29.899Z,15.07
2022-11-06T10:47:04.955Z,13.23
2022-11-06T10:49:41.404Z,14.80
2022-11-06T10:52:25.477Z,13.03
2022-11-06T10:55:04.942Z,14.60
2022-11-06T10:57:43.311Z,11.93
2022-11-06T11:00:13.927Z,13.93
2022-11-06T11:02:47.501Z,12.90
2022-11-06T11:05:19.277Z,12.83
2022-11-06T11:07:49.071Z,13.83
2022-11-06T11:10:31.862Z,12.83
2022-11-06T11:13:06.931Z,13.90
2022-11-06T11:15:45.207Z,12.03
2022-11-06T11:18:19.067Z,13.00
2022-11-06T11:20:49.943Z,12.23
2022-11-06T11:23:20.484Z,13.43
2022-11-06T11:25:50.713Z,18.20
2022-11-06T11:28:26.344Z,14.50
2022-11-06T11:30:56.499Z,15.33
2022-11-06T11:33:27.214Z,13.10
2022-11-06T11:35:56.942Z,13.33
2022-11-06T11:38:26.195Z,12.17
2022-11-06T11:41:08.149Z,12.43
2022-11-06T11:43:36.764Z,11.60
2022-11-06T11:46:27.494Z,11.20
2022-11-06T11:48:57.654Z,11.10
2022-11-06T11:51:31.168Z,12.30
2022-11-06T11:54:05.092Z,12.20
2022-11-06T11:57:02.925Z,13.23
2022-11-06T11:59:24.158Z,12.77
2022-11-06T12:01:53.899Z,13.93
2022-11-06T12:04:29.646Z,12.50
2022-11-06T12:07:02.097Z,12.20
2022-11-06T12:09:34.109Z,12.20
2022-11-06T12:12:03.142Z,10.30
2022-11-06T12:14:37.304Z,12.83
2022-11-06T12:17:13.038Z,12.97
2022-11-06T12:19:43.437Z,13.07
2022-11-06T12:22:20.073Z,11.77
2022-11-06T12:24:54.286Z,11.30
2022-11-06T12:27:27.267Z,11.73
2022-11-06T12:30:03.979Z,11.03
2022-11-06T12:32:45.851Z,11.30
2022-11-06T12:35:25.211Z,13.60
2022-11-06T12:38:01.925Z,12.87
2022-11-06T12:40:31.828Z,11.90
2022-11-06T12:43:16.819Z,13.40
2022-11-06T12:45:58.563Z,13.43
2022-11-06T12:49:08.218Z,12.80
2022-11-06T12:51:49.482Z,12.30
2022-11-06T12:54:40.204Z,12.40
2022-11-06T12:57:18.260Z,11.50
2022-11-06T13:00:00.340Z,13.10
2022-11-06T13:02:44.715Z,12.10
2022-11-06T13:05:18.387Z,13.00
2022-11-06T13:08:14.687Z,12.70
2022-11-06T13:10:52.853Z,11.33
2022-11-06T13:13:36.040Z,11.90
2022-11-06T13:16:16.403Z,12.10
2022-11-06T13:18:52.980Z,12.80
2022-11-06T13:21:33.111Z,12.30
2022-11-06T13:24:08.208Z,11.40
2022-11-06T13:26:43.987Z,14.40
2022-11-06T13:29:15.930Z,11.77
2022-11-06T13:31:52.554Z,11.00
2022-11-06T13:34:25.800Z,11.93
2022-11-06T13:36:55.891Z,13.27
2022-11-06T13:39:31.041Z,12.40
2022-11-06T13:42:01.807Z,11.60
2022-11-06T13:44:30.975Z,13.20
2022-11-06T13:47:08.932Z,11.30
2022-11-06T13:49:46.861Z,10.40
2022-11-06T13:52:22.802Z,10.17
2022-11-06T13:55:07.823Z,10.70
2022-11-06T13:57:51.136Z,10.20
2022-11-06T14:00:24.005Z,10.17
2022-11-06T14:03:32.319Z,10.27
2022-11-06T14:06:04.042Z,9.80
2022-11-06T14:08:36.569Z,10.20
2022-11-06T14:11:12.660Z,11.60
2022-11-06T14:13:42.896Z,12.13
2022-11-06T14:16:28.515Z,11.93
2022-11-06T14:18:58.683Z,11.90
2022-11-06T14:21:51.653Z,11.60
2022-11-06T14:24:41.068Z,15.70
2022-11-06T14:27:15.074Z,9.67
2022-11-06T14:30:07.862Z,11.17
2022-11-06T14:32:52.738Z,10.53
2022-11-06T14:35:51.906Z,10.70
2022-11-06T14:38:35.879Z,13.83
2022-11-06T14:41:44.900Z,20.30
2022-11-06T14:44:21.805Z,12.03
2022-11-06T14:46:55.142Z,11.47
2022-11-06T14:49:38.346Z,10.43
2022-11-06T14:52:09.166Z,11.43
2022-11-06T14:54:41.023Z,11.10
2022-11-06T14:57:12.988Z,10.47
2022-11-06T14:59:42.756Z,10.30
2022-11-06T15:02:20.457Z,11.07
2022-11-06T15:04:54.738Z,11.30
2022-11-06T15:08:07.851Z,11.00
2022-11-06T15:10:51.822Z,9.87
2022-11-06T15:13:30.046Z,10.30
2022-11-06T15:16:11.722Z,9.30
2022-11-06T15:18:44.931Z,8.80
2022-11-06T15:21:22.678Z,12.57
2022-11-06T15:23:59.787Z,10.93
2022-11-06T15:26:29.997Z,10.67
2022-11-06T15:29:12.955Z,9.87
2022-11-06T15:31:44.408Z,11.20
2022-11-06T15:34:21.489Z,11.30
2022-11-06T15:36:54.945Z,10.83
2022-11-06T15:39:24.501Z,9.67
2022-11-06T15:41:53.298Z,8.70
2022-11-06T15:44:23.451Z,8.53
2022-11-06T15:46:55.278Z,9.40
2022-11-06T15:49:25.046Z,9.53
2022-11-06T15:51:55.247Z,8.07
2022-11-06T15:54:37.896Z,8.63
2022-11-06T15:57:14.710Z,8.23
2022-11-06T15:59:42.938Z,8.83
2022-11-06T16:02:18.552Z,8.60
2022-11-06T16:04:49.046Z,8.10
2022-11-06T16:07:19.694Z,6.10
2022-11-06T16:09:48.384Z,8.20
2022-11-06T16:12:19.504Z,7.87
2022-11-06T16:14:47.606Z,8.13
2022-11-06T16:17:19.984Z,7.23
2022-11-06T16:19:51.442Z,7.13
2022-11-06T16:22:22.664Z,7.27
2022-11-06T16:24:54.818Z,7.63
2022-11-06T16:27:25.307Z,8.27
2022-11-06T16:29:55.738Z,7.20
2022-11-06T16:32:27.165Z,8.80
2022-11-06T16:34:56.769Z,6.87
2022-11-06T16:37:40.164Z,8.13
2022-11-06T16:40:41.921Z,6.77
2022-11-06T16:43:15.361Z,7.70
2022-11-06T16:45:54.416Z,8.53
2022-11-06T16:48:35.724Z,6.57
2022-11-06T16:51:11.160Z,8.07
2022-11-06T16:53:52.422Z,7.43
2022-11-06T16:56:25.907Z,7.20
2022-11-06T16:58:57.945Z,7.33
2022-11-06T17:01:27.088Z,7.47
2022-11-06T17:03:59.447Z,6.80
2022-11-06T17:06:31.244Z,6.20
2022-11-06T17:09:07.888Z,7.93
2022-11-06T17:11:37.357Z,7.10
2022-11-06T17:14:17.336Z,6.90
2022-11-06T17:16:50.752Z,7.60
2022-11-06T17:19:19.423Z,8.23
2022-11-06T17:21:49.427Z,8.20
2022-11-06T17:24:35.894Z,6.70
2022-11-06T17:27:04.402Z,9.00
2022-11-06T17:29:33.982Z,9.60
2022-11-06T17:32:02.038Z,7.10
2022-11-06T17:34:30.581Z,10.60
2022-11-06T17:37:00.169Z,7.93
2022-11-06T17:39:28.238Z,9.53
2022-11-06T17:41:56.289Z,7.10
2022-11-06T17:44:24.453Z,11.07
2022-11-06T17:46:52.609Z,8.27
2022-11-06T17:49:20.753Z,8.87
2022-11-06T17:51:53.611Z,6.97
2022-11-06T17:54:25.432Z,10.10
2022-11-06T17:56:54.769Z,8.77
2022-11-06T17:59:23.965Z,9.87
2022-11-06T18:01:52.803Z,7.37
2022-11-06T18:04:22.379Z,7.23
2022-11-06T18:06:52.364Z,8.03
2022-11-06T18:09:22.663Z,9.00
2022-11-06T18:11:51.518Z,6.77
2022-11-06T18:14:20.148Z,6.70
2022-11-06T18:16:48.492Z,7.57
2022-11-06T18:19:18.451Z,7.20
2022-11-06T18:21:47.015Z,6.73
2022-11-06T18:24:15.411Z,7.80
2022-11-06T18:26:45.005Z,6.73
2022-11-06T18:29:14.595Z,6.33
2022-11-06T18:31:43.035Z,6.23
2022-11-06T18:34:18.373Z,6.50
2022-11-06T18:36:49.062Z,7.43
2022-11-06T18:39:17.358Z,7.37
2022-11-06T18:41:47.021Z,7.80
2022-11-06T18:44:17.605Z,7.60
2022-11-06T18:46:46.317Z,7.10
2022-11-06T18:49:14.691Z,6.60
2022-11-06T18:51:42.769Z,7.27
2022-11-06T18:54:12.456Z,7.97
2022-11-06T18:56:40.542Z,8.07
2022-11-06T18:59:14.894Z,6.80
2022-11-06T19:01:43.159Z,6.03
2022-11-06T19:04:11.460Z,7.77
2022-11-06T19:06:40.322Z,6.10
2022-11-06T19:09:09.423Z,8.17
2022-11-06T19:11:37.724Z,6.80
2022-11-06T19:14:05.987Z,6.53
2022-11-06T19:16:35.461Z,7.10
2022-11-06T19:19:05.778Z,6.30
2022-11-06T19:21:34.751Z,6.10
2022-11-06T19:24:05.842Z,6.60
2022-11-06T19:26:35.510Z,6.30
2022-11-06T19:29:05.139Z,6.73
2022-11-06T19:31:34.179Z,5.73
2022-11-06T19:34:05.020Z,6.60
2022-11-06T19:36:33.528Z,5.83
2022-11-06T19:39:01.729Z,6.00
2022-11-06T19:41:30.135Z,6.37
2022-11-06T19:43:58.205Z,5.23
2022-11-06T19:46:32.328Z,7.50
2022-11-06T19:49:05.889Z,6.57
2022-11-06T19:51:34.547Z,6.40
2022-11-06T19:54:02.855Z,7.77
2022-11-06T19:56:30.977Z,7.97
2022-11-06T19:58:59.399Z,5.80
2022-11-06T20:01:27.637Z,6.27
2022-11-06T20:03:55.782Z,5.50
2022-11-06T20:06:27.571Z,5.20
2022-11-06T20:08:55.734Z,6.57
2022-11-06T20:11:24.081Z,6.03
2022-11-06T20:13:52.271Z,5.77
2022-11-06T20:16:22.046Z,6.47
2022-11-06T20:18:54.012Z,6.20
2022-11-06T20:21:22.506Z,5.93
2022-11-06T20:23:52.049Z,5.83
2022-11-06T20:26:20.275Z,6.27
2022-11-06T20:28:48.672Z,5.70
2022-11-06T20:31:19.447Z,5.60
2022-11-06T20:33:48.062Z,6.60
2022-11-06T20:36:18.929Z,6.47
2022-11-06T20:38:47.700Z,6.20
2022-11-06T20:41:17.613Z,6.13
2022-11-06T20:43:46.272Z,6.60
2022-11-06T20:46:15.622Z,5.83
2022-11-06T20:48:45.312Z,5.90
2022-11-06T20:51:15.173Z,6.07
2022-11-06T20:53:43.436Z,7.43
2022-11-06T20:56:14.136Z,5.90
2022-11-06T20:58:44.153Z,5.77
2022-11-06T21:01:14.609Z,7.50
2022-11-06T21:03:42.766Z,6.17
2022-11-06T21:06:11.416Z,5.80
2022-11-06T21:08:41.372Z,6.90
2022-11-06T21:11:12.626Z,5.20
2022-11-06T21:13:41.562Z,6.07
2022-11-06T21:16:14.109Z,8.23
2022-11-06T21:18:43.079Z,10.43
2022-11-06T21:21:12.821Z,12.40
2022-11-06T21:23:41.799Z,8.10
2022-11-06T21:26:12.370Z,7.80
2022-11-06T21:28:41.630Z,7.90
2022-11-06T21:31:12.579Z,7.90
2022-11-06T21:33:41.751Z,10.17
2022-11-06T21:36:12.198Z,6.67
2022-11-06T21:38:40.796Z,8.27
2022-11-06T21:41:09.837Z,7.03
2022-11-06T21:43:38.156Z,7.53
2022-11-06T21:46:08.334Z,8.00
2022-11-06T21:48:47.327Z,7.37
2022-11-06T21:51:18.232Z,7.13
2022-11-06T21:54:03.919Z,7.00
2022-11-06T21:56:32.285Z,6.40
2022-11-06T21:59:01.626Z,6.70
2022-11-06T22:01:31.876Z,6.60
2022-11-06T22:04:02.080Z,6.10
2022-11-06T22:06:30.976Z,7.33
2022-11-06T22:09:02.331Z,7.03
2022-11-06T22:11:32.294Z,6.73
2022-11-06T22:14:03.020Z,5.90
2022-11-06T22:16:32.639Z,6.03
2022-11-06T22:19:02.269Z,5.77
2022-11-06T22:21:31.635Z,7.30
2022-11-06T22:23:59.852Z,6.90
2022-11-06T22:26:30.240Z,6.40
2022-11-06T22:29:00.564Z,6.10
2022-11-06T22:31:29.654Z,6.93
2022-11-06T22:33:59.135Z,5.40
2022-11-06T22:36:28.847Z,5.63
2022-11-06T22:38:57.807Z,5.43
2022-11-06T22:41:26.450Z,7.07
2022-11-06T22:43:59.259Z,5.30
2022-11-06T22:46:27.959Z,6.80
2022-11-06T22:48:56.459Z,6.33
2022-11-06T22:51:26.783Z,6.33
2022-11-06T22:53:56.903Z,5.83
2022-11-06T22:56:26.679Z,5.90
2022-11-06T22:58:55.638Z,6.17
2022-11-06T23:01:25.512Z,5.97
2022-11-06T23:03:56.820Z,5.37
2022-11-06T23:06:25.938Z,6.07
2022-11-06T23:08:55.907Z,5.73
2022-11-06T23:11:25.628Z,6.77
2022-11-06T23:13:54.191Z,5.27
2022-11-06T23:16:38.907Z,6.30
2022-11-06T23:19:07.050Z,5.53
2022-11-06T23:21:35.253Z,5.30
2022-11-06T23:24:06.011Z,5.80
2022-11-06T23:26:34.132Z,5.33
2022-11-06T23:29:02.409Z,4.90
2022-11-06T23:31:30.781Z,4.40
2022-11-06T23:33:58.847Z,4.37
2022-11-06T23:36:27.011Z,5.00
2022-11-06T23:38:55.726Z,5.30
2022-11-06T23:41:42.413Z,5.87
2022-11-06T23:44:30.865Z,5.50
2022-11-06T23:46:58.520Z,5.73
2022-11-06T23:49:26.658Z,4.60
2022-11-06T23:51:55.019Z,5.40
2022-11-06T23:54:23.214Z,4.00
2022-11-06T23:56:52.752Z,6.20
2022-11-06T23:59:20.919Z,4.63
